Historyczne dane pomiarowe

Dodano dane terminowe – wersja testowa.

Dane z okresu 1951-2019

Wersja bazy: 1.34 [2019-03-16, lista zmian], aktualizacja planowana na 2019-04-15

Dane meteo z obszaru Polski uzyskane na podstawie danych udostępnionych przez Instytut Meteorologii i Gospodarki Wodnej – Państwowy Instytut Badawczy.

 

Wybierz Datę:    

       

TemperaturaWilgotnośćWiatrCiśnienieOpadyŚniegCzas trwania zjawisk
 Stacja t tx tn tng RH VA  wxwx mslp ppp RRR   cm mm wxwxwxwxwxwxwx
1975-07-30 19.0 23.9 16.3- 85.5- 3.0 4.0---- 0.0------------
1975-07-29 18.2 22.5 11.8- 76.5- 0.3 5.7---- 0.5------------
1975-07-28 17.6 21.6 14.6- 86.5- 4.7 4.0---- 0.0------------
1975-07-27 15.2 18.0 13.5- 90.0- 5.3 5.0---- 9.6------------
1975-07-26 14.2 16.4 11.9- 90.0- 6.0 4.0---- 48.6------------
1975-07-25 16.7 20.0 12.4- 77.8- 5.0 1.0---- 0.0------------
1975-07-24 20.7 29.2 15.1- 75.0- 2.3 3.3---- 9.6------------
1975-07-23 18.8 25.2 13.6- 78.5- 4.7 2.0---- 0.0------------
1975-07-22 19.5 25.9 12.5- 75.0- 0.7 2.0---- 0.0------------
1975-07-21 20.6 29.6 15.1- 77.8- 0.7 2.3---- 0.0------------
1975-07-20 20.8 26.0 16.8- 74.8- 3.0 4.3---- 0.0------------
1975-07-19 18.9 26.4 13.4- 76.8- 5.0 2.7---- 11.6------------
1975-07-18 18.3 24.5 9.3- 71.0- 0.7 1.0---- 0.0------------
1975-07-17 17.2 21.6 14.3- 74.5- 4.0 3.3---- 0.8------------
1975-07-16 19.3 25.4 14.8- 75.5- 2.7 4.3---- 0.0------------
1975-07-15 20.0 27.4 13.4- 74.0- 4.0 2.7---- 1.5------------
1975-07-14 19.8 25.1 14.8- 79.5- 3.7 2.0---- 2.0------------
1975-07-13 20.0 24.7 16.2- 73.3- 3.0 3.0---- 0.0------------
1975-07-12 21.6 28.5 13.8- 71.5- 1.7 0.7---- 0.0------------
1975-07-11 19.3 24.0 14.9- 79.8- 5.3 1.7---- 0.0------------
1975-07-10 20.1 27.6 10.9- 73.5- 2.3 2.0---- 0.0------------
1975-07-09 16.8 24.0 8.7- 72.8- 0.0 3.0---- 0.0------------
1975-07-08 17.9 26.0 6.9- 67.8- 0.0 2.0---- 0.0------------
1975-07-07 16.2 24.4 4.5- 66.8- 0.0 0.7---- 0.0------------
1975-07-06 15.7 21.5 9.8- 71.5- 0.0 3.7---- 0.0------------
1975-07-05 16.0 19.0 12.6- 82.0- 1.3 4.7---- 0.0------------
1975-07-04 16.3 23.9 8.2- 77.3- 0.0 2.0---- 0.0------------
1975-07-03 17.0 23.6 8.9- 69.3- 0.7 3.7---- 0.0------------
1975-07-02 19.2 23.8 16.0- 73.0- 1.3 4.7---- 0.0------------
1975-07-01 16.6 21.1 13.2- 85.5- 4.7 4.0---- 0.0------------
1975-06-30 14.0 17.5 9.7- 83.3- 4.7 2.7---- 0.0------------
1975-06-29 12.4 15.3 10.6- 79.3- 6.0 4.7---- 0.5------------
1975-06-28 12.0 17.0 6.4- 75.0- 1.7 4.3---- 0.5------------
1975-06-27 15.6 19.2 11.3- 72.5- 4.0 4.7---- 0.0------------
1975-06-26 15.9 24.5 6.3- 68.8- 0.3 3.3---- 0.0------------
1975-06-25 14.5 20.4 11.8- 71.3- 1.7 3.7---- 0.0------------
1975-06-24 20.3 25.7 14.1- 83.3- 0.7 2.0---- 0.0------------
1975-06-23 19.5 24.2 15.0- 81.8- 1.3 4.7---- 0.0------------
1975-06-22 20.4 26.6 16.3- 88.3- 3.0 4.0---- 0.0------------
1975-06-21 20.9 25.9 16.4- 86.3- 2.0 2.7---- 7.0------------
1975-06-20 19.2 24.4 14.7- 82.5- 3.0 4.0---- 0.0------------
1975-06-19 15.4 20.2 5.9- 76.0- 3.3 4.0---- 0.4------------
1975-06-18 11.6 17.5 5.9- 86.5- 1.3 1.7---- 0.0------------
1975-06-17 12.3 20.0 11.5- 94.5- 4.0 3.3---- 13.8------------
1975-06-16 16.6 21.1 12.6- 89.0- 6.0 2.3---- 3.6------------
1975-06-15 13.9 18.8 9.9- 81.8- 5.0 4.7---- 1.8------------
1975-06-14 12.2 15.6 9.3- 78.5- 5.7 4.7---- 0.0------------
1975-06-13 15.8 23.0 8.5- 70.0- 4.7 3.3---- 0.0------------
1975-06-12 15.8 23.5 6.6- 72.5- 0.0 2.3---- 0.0------------
1975-06-11 13.5 17.6 10.1- 76.0- 0.3 7.7---- 0.0------------
1975-06-10 15.4 19.0 12.9- 90.3- 6.0 4.7---- 3.1------------
1975-06-09 18.0 24.5 8.9- 80.5- 2.7 2.7---- 23.2------------
1975-06-08 15.4 20.3 10.3- 73.0- 2.0 8.0---- 0.0------------
1975-06-07 12.5 17.0 6.6- 67.3- 2.7 6.3---- 0.0------------
1975-06-06 11.5 17.5 8.6- 62.5- 1.0 4.3---- 0.0------------
1975-06-05 10.1 15.5 2.9- 81.8- 3.7 2.3---- 0.0------------
1975-06-04 10.9 16.3 3.0- 67.8- 1.3 3.7---- 0.0------------
1975-06-03 11.8 14.9 7.6- 69.5- 2.3 2.7---- 0.0------------
1975-06-02 8.8 14.5 0.9- 69.3- 2.3 3.3---- 0.0------------
1975-06-01 7.9 14.5 0.9- 66.5- 2.3 2.7---- 0.0------------
781.1 ms

 

Źródłem pochodzenia danych jest Instytut Meteorologii i Gospodarki Wodnej – Państwowy Instytut Badawczy. Dane Instytutu Meteorologii i Gospodarki Wodnej – Państwowego Instytutu Badawczego zostały przetworzone.

Dane źródłowe można odnaleźć na stronie https://dane.imgw.pl